Time;durP1;ratioP1;P1;durP2;ratioP2;P2;SDS_P1;SDS_P2;PMS_P1;PMS_P2;Temp;Humidity;BMP_temperature;BMP_pressure;BME280_temperature;BME280_humidity;BME280_pressure;Samples;Min_cycle;Max_cycle;Signal;HPM_P1;HPM_P2
2020/12/18 00:03:22;;;;;;;29.63;15.82;;;4.40;99.90;;;;;;8297980;28;20030;-73
2020/12/18 00:07:23;;;;;;;29.90;16.38;;;4.40;99.90;;;;;;8296482;28;20057;-73
2020/12/18 00:11:25;;;;;;;34.17;16.75;;;4.40;99.90;;;;;;8297317;28;20097;-73
2020/12/18 00:15:29;;;;;;;30.73;16.10;;;4.30;99.90;;;;;;8296109;28;20034;-73
2020/12/18 00:19:30;;;;;;;28.73;15.68;;;4.40;99.90;;;;;;8297342;28;20029;-73
2020/12/18 00:23:33;;;;;;;27.60;15.85;;;4.70;99.90;;;;;;8296176;28;20447;-72
2020/12/18 00:27:33;;;;;;;30.38;16.23;;;4.70;99.90;;;;;;8297163;28;20499;-73
2020/12/18 00:31:34;;;;;;;27.38;14.73;;;4.70;99.90;;;;;;8296857;28;20030;-73
2020/12/18 00:35:34;;;;;;;28.90;15.48;;;4.60;99.90;;;;;;8295610;28;20026;-73
2020/12/18 00:39:35;;;;;;;26.50;14.85;;;4.60;99.90;;;;;;8296580;28;20022;-73
2020/12/18 00:43:36;;;;;;;26.73;14.50;;;4.60;99.90;;;;;;8295420;28;20033;-73
2020/12/18 00:47:37;;;;;;;25.73;14.48;;;4.60;99.90;;;;;;8295340;28;20101;-73
2020/12/18 00:51:37;;;;;;;29.00;15.20;;;4.50;99.90;;;;;;8296133;28;20026;-73
2020/12/18 00:55:38;;;;;;;29.52;15.57;;;4.30;99.90;;;;;;8296324;28;20053;-73
2020/12/18 00:59:38;;;;;;;28.55;15.40;;;4.30;99.90;;;;;;8295927;28;20026;-73
2020/12/18 01:03:39;;;;;;;26.95;14.93;;;4.30;99.90;;;;;;8296050;28;20032;-73
2020/12/18 01:07:40;;;;;;;26.15;15.35;;;4.20;99.90;;;;;;8295918;28;20030;-73
2020/12/18 01:11:40;;;;;;;26.23;14.32;;;4.40;99.90;;;;;;8294215;28;20026;-73
2020/12/18 01:15:41;;;;;;;25.70;13.77;;;4.40;99.90;;;;;;8295571;28;20037;-73
2020/12/18 01:19:41;;;;;;;25.75;14.02;;;4.70;99.90;;;;;;8294769;28;20487;-73
2020/12/18 01:23:42;;;;;;;26.92;14.15;;;4.60;99.90;;;;;;8295675;28;20036;-72
2020/12/18 01:27:42;;;;;;;24.13;14.20;;;4.70;99.90;;;;;;8281277;28;20064;-73
2020/12/18 01:31:43;;;;;;;22.65;13.73;;;4.60;99.90;;;;;;8261194;28;20045;-73
2020/12/18 01:35:43;;;;;;;25.13;14.38;;;4.60;99.90;;;;;;8261395;28;20631;-73
2020/12/18 01:39:44;;;;;;;23.88;13.43;;;4.60;99.90;;;;;;8293870;28;20022;-73
2020/12/18 01:43:44;;;;;;;23.90;14.10;;;4.50;99.90;;;;;;8295143;28;20161;-73
2020/12/18 01:47:45;;;;;;;24.05;13.05;;;4.60;99.90;;;;;;8293691;28;20605;-72
2020/12/18 01:51:48;;;;;;;20.48;12.85;;;4.60;99.90;;;;;;8293121;28;20033;-73
2020/12/18 01:55:50;;;;;;;24.92;13.50;;;4.70;99.90;;;;;;8293199;28;20026;-73
2020/12/18 01:59:52;;;;;;;23.67;13.85;;;4.60;99.90;;;;;;8294258;28;20018;-74
2020/12/18 02:03:55;;;;;;;24.38;14.10;;;4.50;99.90;;;;;;8294546;28;20037;-73
2020/12/18 02:08:02;;;;;;;22.60;13.02;;;4.60;99.90;;;;;;8294239;28;20030;-74
2020/12/18 02:12:03;;;;;;;21.48;13.13;;;4.50;99.90;;;;;;8292293;28;20030;-73
2020/12/18 02:16:03;;;;;;;21.05;12.38;;;4.40;99.90;;;;;;8293930;28;20033;-73
2020/12/18 02:20:04;;;;;;;22.50;13.63;;;4.40;99.90;;;;;;8309241;28;20057;-73
2020/12/18 02:24:05;;;;;;;21.00;12.65;;;4.40;99.90;;;;;;8294276;28;20030;-73
2020/12/18 02:28:07;;;;;;;23.30;13.15;;;4.50;99.90;;;;;;8309169;28;20021;-73
2020/12/18 02:32:07;;;;;;;20.65;12.93;;;4.50;99.90;;;;;;8308612;28;20026;-73
2020/12/18 02:36:08;;;;;;;20.10;12.13;;;4.90;99.90;;;;;;8293921;28;20447;-73
2020/12/18 02:40:09;;;;;;;19.05;11.68;;;4.70;99.90;;;;;;8297779;28;20405;-74
2020/12/18 02:44:10;;;;;;;22.65;13.27;;;4.60;99.90;;;;;;8300336;28;20088;-73
2020/12/18 02:48:11;;;;;;;21.05;11.95;;;4.60;99.90;;;;;;8298825;28;20026;-73
2020/12/18 02:52:11;;;;;;;22.85;12.93;;;4.50;99.90;;;;;;8299734;28;20403;-73
2020/12/18 02:56:12;;;;;;;23.77;13.20;;;4.50;99.90;;;;;;8299714;28;20033;-73
2020/12/18 03:00:13;;;;;;;21.13;12.52;;;4.40;99.90;;;;;;8299562;28;20117;-72
2020/12/18 03:04:13;;;;;;;22.40;13.27;;;4.30;99.90;;;;;;8298524;28;20491;-73
2020/12/18 03:08:14;;;;;;;22.25;13.40;;;4.50;99.90;;;;;;8298287;28;20037;-73
2020/12/18 03:12:14;;;;;;;21.52;13.48;;;4.60;99.90;;;;;;8299393;28;20721;-73
2020/12/18 03:16:15;;;;;;;21.27;12.52;;;4.60;99.90;;;;;;8299383;28;20076;-73
2020/12/18 03:20:16;;;;;;;23.23;12.40;;;4.50;99.90;;;;;;8297892;28;20112;-74
2020/12/18 03:24:16;;;;;;;27.55;13.73;;;4.50;99.90;;;;;;8299046;28;20033;-73
2020/12/18 03:28:17;;;;;;;23.98;13.32;;;4.90;99.90;;;;;;8299027;28;20033;-73
2020/12/18 03:32:18;;;;;;;28.15;13.70;;;4.90;99.90;;;;;;8298566;28;20033;-73
2020/12/18 03:36:18;;;;;;;23.75;13.25;;;4.60;99.90;;;;;;8297475;28;20092;-74
2020/12/18 03:40:20;;;;;;;25.77;13.45;;;4.60;99.90;;;;;;8297084;28;20116;-73
2020/12/18 03:44:20;;;;;;;20.20;12.32;;;4.90;99.90;;;;;;8298529;28;20029;-73
2020/12/18 03:48:21;;;;;;;27.77;12.80;;;4.90;99.90;;;;;;8272275;28;20522;-73
2020/12/18 03:52:21;;;;;;;21.60;12.52;;;4.80;99.90;;;;;;8265114;28;20062;-73
2020/12/18 03:56:22;;;;;;;22.17;12.32;;;4.80;99.90;;;;;;8265777;28;20027;-73
2020/12/18 04:00:22;;;;;;;20.52;12.38;;;4.80;99.90;;;;;;8264229;28;20026;-73
2020/12/18 04:04:23;;;;;;;23.73;13.45;;;4.90;99.90;;;;;;8264291;28;20030;-73
2020/12/18 04:08:23;;;;;;;22.98;13.38;;;4.70;99.90;;;;;;8270663;28;20052;-73
2020/12/18 04:12:24;;;;;;;19.80;11.95;;;4.60;99.90;;;;;;8297417;28;20064;-73
2020/12/18 04:16:25;;;;;;;22.55;12.82;;;4.80;99.90;;;;;;8297506;28;20483;-72
2020/12/18 04:20:25;;;;;;;22.70;12.98;;;4.80;99.90;;;;;;8274130;28;20484;-73
2020/12/18 04:24:26;;;;;;;20.38;11.07;;;4.80;99.90;;;;;;8263649;28;20030;-73
2020/12/18 04:28:26;;;;;;;19.35;12.07;;;4.70;99.90;;;;;;8264667;28;20026;-73
2020/12/18 04:32:27;;;;;;;20.42;11.95;;;4.50;99.90;;;;;;8283371;28;20033;-73
2020/12/18 04:36:27;;;;;;;25.83;12.27;;;4.70;99.90;;;;;;8296769;28;20022;-73
2020/12/18 04:40:28;;;;;;;21.00;11.70;;;4.70;99.90;;;;;;8278860;28;20603;-73
2020/12/18 04:44:29;;;;;;;20.73;12.07;;;4.70;99.90;;;;;;8264222;28;20026;-72
2020/12/18 04:48:31;;;;;;;24.80;12.60;;;4.90;99.90;;;;;;8264217;28;20054;-73
2020/12/18 04:52:32;;;;;;;23.77;12.70;;;4.70;99.90;;;;;;8286256;28;20056;-73
2020/12/18 04:56:34;;;;;;;26.00;14.02;;;4.60;99.90;;;;;;8295865;28;20041;-73
2020/12/18 05:00:35;;;;;;;25.40;13.50;;;4.60;99.90;;;;;;8293573;28;20018;-73
2020/12/18 05:04:40;;;;;;;24.92;13.60;;;4.70;99.90;;;;;;8310658;28;20025;-73
2020/12/18 05:08:43;;;;;;;25.15;13.85;;;4.80;99.90;;;;;;8281183;28;20034;-73
2020/12/18 05:12:43;;;;;;;26.33;14.15;;;4.80;99.90;;;;;;8284601;28;20526;-73
2020/12/18 05:16:46;;;;;;;29.92;15.40;;;4.70;99.90;;;;;;8293350;28;20034;-73
2020/12/18 05:20:47;;;;;;;33.47;16.25;;;4.70;99.90;;;;;;8295140;28;20037;-73
2020/12/18 05:24:49;;;;;;;27.92;15.07;;;4.60;99.90;;;;;;8294949;28;20018;-73
2020/12/18 05:28:50;;;;;;;24.70;14.63;;;4.70;99.90;;;;;;8291646;28;20028;-76
2020/12/18 05:32:53;;;;;;;25.25;13.52;;;4.80;99.90;;;;;;8275140;28;20496;-76
2020/12/18 05:36:55;;;;;;;22.50;12.85;;;4.50;99.90;;;;;;8274591;28;20068;-76
2020/12/18 05:40:59;;;;;;;23.85;13.35;;;4.60;99.90;;;;;;8288590;28;20025;-77
2020/12/18 05:45:11;;;;;;;24.58;13.02;;;4.70;99.90;;;;;;8292319;28;20128;-76
2020/12/18 05:49:13;;;;;;;23.10;12.77;;;4.60;99.90;;;;;;8293240;28;20030;-76
2020/12/18 05:53:13;;;;;;;21.00;12.60;;;4.90;99.90;;;;;;8293194;28;20034;-76
2020/12/18 05:57:16;;;;;;;23.55;14.25;;;4.70;99.90;;;;;;8290951;28;20026;-77
2020/12/18 06:01:16;;;;;;;20.75;12.70;;;4.60;99.90;;;;;;8289761;28;20121;-77
2020/12/18 06:05:19;;;;;;;24.42;13.70;;;4.70;99.90;;;;;;8293469;28;20030;-76
2020/12/18 06:09:22;;;;;;;24.02;13.43;;;4.70;99.90;;;;;;8292983;28;20463;-77
2020/12/18 06:13:24;;;;;;;21.50;13.07;;;4.80;99.90;;;;;;8294228;28;20064;-77
2020/12/18 06:17:28;;;;;;;21.63;12.73;;;5.00;99.90;;;;;;8294633;28;20022;-77
2020/12/18 06:21:29;;;;;;;21.48;12.63;;;4.90;99.90;;;;;;8293424;28;20566;-77
2020/12/18 06:25:30;;;;;;;26.15;12.85;;;4.70;99.90;;;;;;8292582;28;20053;-77
2020/12/18 06:29:31;;;;;;;21.67;13.25;;;4.60;99.90;;;;;;8292592;28;20038;-77
2020/12/18 06:34:05;;;;;;;24.38;14.13;;;4.70;99.90;;;;;;8293123;28;20112;-77
2020/12/18 06:38:15;;;;;;;28.70;18.08;;;4.60;99.90;;;;;;8273985;28;20495;-76
2020/12/18 06:42:22;;;;;;;24.17;13.98;;;4.60;99.90;;;;;;8332625;28;20076;-77
2020/12/18 06:46:22;;;;;;;28.17;15.63;;;4.50;99.90;;;;;;8300410;28;20037;-76
2020/12/18 06:50:23;;;;;;;27.85;16.75;;;4.20;99.90;;;;;;8271445;28;20077;-76
2020/12/18 06:54:25;;;;;;;26.70;15.68;;;4.30;99.90;;;;;;8308760;28;20029;-77
2020/12/18 06:58:32;;;;;;;24.35;15.32;;;4.30;99.90;;;;;;8294249;28;20025;-77
2020/12/18 07:02:36;;;;;;;26.80;15.13;;;4.30;99.90;;;;;;8292755;28;20034;-78
2020/12/18 07:06:37;;;;;;;25.58;16.20;;;4.30;99.90;;;;;;8292494;28;20026;-80
2020/12/18 07:10:46;;;;;;;33.80;17.80;;;3.80;99.90;;;;;;8290333;28;20037;-79
2020/12/18 07:14:49;;;;;;;24.10;14.05;;;3.80;99.90;;;;;;8291070;28;20022;-73
2020/12/18 07:18:50;;;;;;;23.10;14.15;;;3.90;99.90;;;;;;8287139;28;20030;-75
2020/12/18 07:22:52;;;;;;;26.38;15.40;;;3.60;99.90;;;;;;8282571;28;20484;-73
2020/12/18 07:26:53;;;;;;;26.67;15.75;;;3.30;99.90;;;;;;8295921;28;20650;-74
2020/12/18 07:30:55;;;;;;;23.45;13.52;;;3.20;99.90;;;;;;8284250;28;20046;-73
2020/12/18 07:35:07;;;;;;;25.90;14.57;;;3.10;99.90;;;;;;8296978;28;20034;-73
2020/12/18 07:39:10;;;;;;;24.55;14.40;;;3.30;99.90;;;;;;8293169;28;20107;-77
2020/12/18 07:43:12;;;;;;;27.63;15.48;;;3.10;99.90;;;;;;8289165;28;20506;-77
2020/12/18 07:47:13;;;;;;;127.07;16.85;;;3.20;99.90;;;;;;8294355;28;20026;-76
2020/12/18 07:51:18;;;;;;;395.55;19.23;;;3.40;99.90;;;;;;8289587;28;20454;-75
2020/12/18 07:55:19;;;;;;;574.55;20.08;;;3.60;99.90;;;;;;8294396;28;20026;-76
2020/12/18 07:59:19;;;;;;;621.92;21.80;;;3.80;99.90;;;;;;8312402;28;20022;-76
2020/12/18 08:03:20;;;;;;;339.50;17.08;;;3.80;99.90;;;;;;8293892;28;20030;-76
2020/12/18 08:07:21;;;;;;;180.60;15.63;;;3.70;99.90;;;;;;8284035;28;20018;-76
2020/12/18 08:11:24;;;;;;;41.97;16.55;;;3.40;99.90;;;;;;8292407;28;20028;-75
2020/12/18 08:15:25;;;;;;;30.10;16.70;;;3.40;99.90;;;;;;8291784;28;20107;-76
2020/12/18 08:19:25;;;;;;;32.05;17.38;;;3.40;99.90;;;;;;8295327;28;20135;-76
2020/12/18 08:23:28;;;;;;;31.00;19.08;;;3.60;99.90;;;;;;8295899;28;20034;-76
2020/12/18 08:27:33;;;;;;;29.45;16.98;;;3.80;99.90;;;;;;8296044;28;20025;-76
2020/12/18 08:31:41;;;;;;;24.52;13.85;;;3.90;99.90;;;;;;8293624;28;20384;-77
2020/12/18 08:35:45;;;;;;;15.50;10.85;;;4.10;99.90;;;;;;8294359;28;20059;-76
2020/12/18 08:39:46;;;;;;;13.25;8.65;;;4.30;99.90;;;;;;8292163;28;20455;-77
2020/12/18 08:43:46;;;;;;;28.52;8.90;;;4.50;99.90;;;;;;8272826;28;20049;-73
2020/12/18 08:47:50;;;;;;;19.13;9.35;;;4.50;99.90;;;;;;8278945;28;20022;-72
2020/12/18 08:52:02;;;;;;;12.70;9.00;;;4.50;99.90;;;;;;8278386;28;20069;-74
2020/12/18 08:56:08;;;;;;;14.38;9.02;;;4.60;99.90;;;;;;8292368;28;20506;-74
2020/12/18 09:00:10;;;;;;;14.70;9.60;;;4.60;99.90;;;;;;8291096;28;20022;-74
2020/12/18 09:04:14;;;;;;;14.15;9.48;;;4.80;99.90;;;;;;8285505;28;20050;-75
2020/12/18 09:08:16;;;;;;;11.60;8.38;;;5.00;99.90;;;;;;8285765;28;20026;-74
2020/12/18 09:12:17;;;;;;;15.55;10.73;;;5.00;99.90;;;;;;8286317;28;20080;-73
2020/12/18 09:16:23;;;;;;;20.20;13.15;;;4.80;99.90;;;;;;8284719;28;20101;-74
2020/12/18 09:20:25;;;;;;;19.08;12.20;;;4.90;99.90;;;;;;8294167;28;20122;-74
2020/12/18 09:24:26;;;;;;;19.73;13.02;;;5.30;99.90;;;;;;8282638;28;20033;-74
2020/12/18 09:28:33;;;;;;;18.67;12.55;;;5.50;99.90;;;;;;8287797;28;20033;-75
2020/12/18 09:32:33;;;;;;;16.80;11.73;;;5.80;99.90;;;;;;8293003;28;20523;-74
2020/12/18 09:36:34;;;;;;;18.23;12.25;;;5.90;99.90;;;;;;8297198;28;20034;-74
2020/12/18 09:40:35;;;;;;;19.20;12.95;;;6.00;99.90;;;;;;8288453;28;20072;-75
2020/12/18 09:44:36;;;;;;;19.20;12.82;;;6.30;99.90;;;;;;8290037;28;20025;-74
2020/12/18 09:48:37;;;;;;;18.08;12.10;;;6.40;99.90;;;;;;8289210;28;20033;-74
2020/12/18 09:52:37;;;;;;;16.15;11.40;;;6.40;99.90;;;;;;8291234;28;20049;-75
2020/12/18 09:56:38;;;;;;;17.25;10.63;;;6.40;99.90;;;;;;8291641;28;20030;-74
2020/12/18 10:00:38;;;;;;;14.55;9.10;;;6.50;99.90;;;;;;8293895;28;20014;-74
2020/12/18 10:04:39;;;;;;;11.27;7.97;;;7.10;99.90;;;;;;8293802;28;20033;-74
2020/12/18 10:08:39;;;;;;;13.10;9.23;;;7.40;99.90;;;;;;8289223;28;20044;-75
2020/12/18 10:12:40;;;;;;;10.52;7.43;;;7.50;99.90;;;;;;8300480;28;20037;-76
2020/12/18 10:16:41;;;;;;;8.23;5.22;;;7.80;99.90;;;;;;8286594;28;20037;-76
2020/12/18 10:20:43;;;;;;;8.07;5.93;;;7.90;99.90;;;;;;8288388;28;20064;-74
2020/12/18 10:24:44;;;;;;;;;;;8.90;99.90;;;;;;8274960;28;20033;-72
2020/12/18 10:28:44;;;;;;;;;;;12.00;99.90;;;;;;8289093;28;20008;-72
2020/12/18 10:32:45;;;;;;;;;;;15.20;99.90;;;;;;8284335;28;19920;-74
2020/12/18 10:36:50;;;;;;;;;;;18.40;90.00;;;;;;8307974;28;20378;-72
2020/12/18 10:40:50;;;;;;;;;;;20.00;71.90;;;;;;8291757;28;19987;-73
2020/12/18 10:44:52;;;;;;;;;;;20.50;64.00;;;;;;8292453;28;20375;-74
2020/12/18 10:48:52;;;;;;;;;;;20.80;61.10;;;;;;8291483;28;19921;-73
2020/12/18 10:52:53;;;;;;;;;;;21.80;56.00;;;;;;8280483;28;19918;-76
2020/12/18 10:56:55;;;;;;;;;;;22.20;54.00;;;;;;8290937;28;19925;-76
2020/12/18 11:00:55;;;;;;;;;;;22.40;53.80;;;;;;8295694;28;19913;-76
2020/12/18 11:04:56;;;;;;;;;;;22.40;53.00;;;;;;8299989;28;20298;-75
2020/12/18 11:08:57;;;;;;;;;;;23.20;51.40;;;;;;8298579;28;20650;-76
2020/12/18 11:12:57;;;;;;;;;;;24.30;48.90;;;;;;8284401;28;20390;-74
2020/12/18 11:16:58;;;;;;;;;;;24.20;47.90;;;;;;8291068;28;20371;-76
2020/12/18 11:20:58;;;;;;;;;;;23.90;47.90;;;;;;8298991;28;19909;-76
2020/12/18 11:25:00;;;;;;;;;;;23.80;49.00;;;;;;8298195;28;19913;-72
2020/12/18 11:29:01;;;;;;;;;;;24.80;46.70;;;;;;8298394;28;19909;-73
2020/12/18 11:33:01;;;;;;;;;;;25.50;45.80;;;;;;8298874;28;19919;-74
2020/12/18 11:37:02;;;;;;;;;;;26.00;44.10;;;;;;8297108;28;20330;-72
2020/12/18 11:41:03;;;;;;;;;;;26.60;43.00;;;;;;8272554;28;19914;-74
2020/12/18 11:45:04;;;;;;;;;;;27.20;42.30;;;;;;8283112;28;19943;-73
2020/12/18 11:49:04;;;;;;;5.43;4.60;;;26.40;43.00;;;;;;8281585;28;20408;-72
2020/12/18 11:53:05;;;;;;;5.05;4.50;;;26.30;42.60;;;;;;8296290;28;20030;-73
2020/12/18 11:57:06;;;;;;;4.97;4.00;;;25.60;43.80;;;;;;8292710;28;20482;-74
2020/12/18 12:01:06;;;;;;;4.10;3.72;;;24.80;44.60;;;;;;8295860;28;20030;-73
2020/12/18 12:05:07;;;;;;;5.82;4.30;;;24.90;43.70;;;;;;8285791;28;20033;-72
2020/12/18 12:09:10;;;;;;;4.97;3.63;;;24.30;44.80;;;;;;8282484;28;20031;-74
2020/12/18 12:13:10;;;;;;;5.78;4.05;;;25.20;43.50;;;;;;8282082;28;20084;-72
2020/12/18 12:17:11;;;;;;;5.25;3.70;;;25.60;42.80;;;;;;8284700;28;20060;-73
2020/12/18 12:21:12;;;;;;;4.68;3.50;;;24.50;45.30;;;;;;8284998;28;20026;-72
2020/12/18 12:25:12;;;;;;;4.90;4.32;;;24.40;44.10;;;;;;8302509;28;20701;-69
2020/12/18 12:29:13;;;;;;;5.25;4.10;;;22.60;47.90;;;;;;8295432;28;20040;-69
2020/12/18 12:33:13;;;;;;;5.22;4.38;;;22.50;49.50;;;;;;8295694;28;20404;-72
2020/12/18 12:37:14;;;;;;;5.30;3.80;;;22.40;50.50;;;;;;8294820;28;20041;-73
2020/12/18 12:41:16;;;;;;;6.40;4.28;;;21.20;52.10;;;;;;8292444;28;20018;-72
2020/12/18 12:45:17;;;;;;;5.07;4.45;;;20.30;54.30;;;;;;8281718;28;20034;-72
2020/12/18 12:49:17;;;;;;;5.43;4.30;;;19.90;54.40;;;;;;8287564;28;20061;-72
2020/12/18 12:53:18;;;;;;;6.10;5.07;;;18.50;59.50;;;;;;8285361;28;20029;-69
2020/12/18 12:57:18;;;;;;;8.50;5.47;;;18.90;62.90;;;;;;8292569;28;20056;-69
2020/12/18 13:01:19;;;;;;;6.93;5.85;;;19.80;62.70;;;;;;8293017;28;20030;-69
2020/12/18 13:05:20;;;;;;;7.38;6.20;;;20.60;61.10;;;;;;8289530;28;20034;-70
2020/12/18 13:09:20;;;;;;;7.20;5.65;;;21.30;60.10;;;;;;8294139;28;20026;-70
2020/12/18 13:13:21;;;;;;;5.63;5.03;;;22.00;58.10;;;;;;8292132;28;20092;-71
2020/12/18 13:17:21;;;;;;;7.10;5.70;;;22.60;56.70;;;;;;8293154;28;20455;-72
2020/12/18 13:21:30;;;;;;;6.03;5.43;;;23.40;54.80;;;;;;8294306;28;20026;-72
2020/12/18 13:25:31;;;;;;;6.63;5.15;;;23.90;52.80;;;;;;8294948;28;20018;-72
2020/12/18 13:29:31;;;;;;;6.22;5.05;;;25.30;49.10;;;;;;8294306;28;20112;-70
2020/12/18 13:33:32;;;;;;;5.13;4.63;;;26.30;47.20;;;;;;8263295;28;20400;-70
2020/12/18 13:37:33;;;;;;;5.53;4.50;;;24.60;48.10;;;;;;8276176;28;20028;-70
2020/12/18 13:41:33;;;;;;;4.70;4.00;;;25.30;47.80;;;;;;8294044;28;20034;-69
2020/12/18 13:45:34;;;;;;;4.68;4.22;;;25.50;45.70;;;;;;8282633;28;20042;-71
2020/12/18 13:49:35;;;;;;;6.18;4.90;;;22.80;50.40;;;;;;8281554;28;20041;-70
2020/12/18 13:53:35;;;;;;;5.43;4.90;;;18.80;60.00;;;;;;8271307;28;20060;-70
2020/12/18 13:57:36;;;;;;;7.15;5.70;;;17.40;67.70;;;;;;8264525;28;20029;-70
2020/12/18 14:01:38;;;;;;;7.13;6.07;;;16.40;71.50;;;;;;8291353;28;20479;-70
2020/12/18 14:05:38;;;;;;;7.05;5.45;;;14.80;78.40;;;;;;8283736;28;20384;-72
2020/12/18 14:09:40;;;;;;;6.22;5.30;;;13.70;84.10;;;;;;8283259;28;20030;-75
2020/12/18 14:13:40;;;;;;;7.72;5.40;;;12.50;90.70;;;;;;8273039;28;20451;-75
2020/12/18 14:17:42;;;;;;;8.75;5.13;;;11.60;95.90;;;;;;8269645;28;20076;-76
2020/12/18 14:21:44;;;;;;;7.95;5.45;;;10.90;99.90;;;;;;8277264;28;20707;-74
2020/12/18 14:25:44;;;;;;;8.82;5.40;;;10.40;99.90;;;;;;8283152;28;20034;-74
2020/12/18 14:29:45;;;;;;;7.80;5.40;;;10.10;99.90;;;;;;8272426;28;20037;-73
2020/12/18 14:33:46;;;;;;;9.40;6.45;;;10.00;99.90;;;;;;8269731;28;20029;-74
2020/12/18 14:37:46;;;;;;;13.95;7.38;;;9.70;99.90;;;;;;8296306;28;20164;-74
2020/12/18 14:41:47;;;;;;;10.70;7.65;;;9.50;99.90;;;;;;8288479;28;20038;-73
2020/12/18 14:45:48;;;;;;;9.23;7.28;;;9.20;99.90;;;;;;8296809;28;20626;-74
2020/12/18 14:49:49;;;;;;;13.57;7.32;;;8.80;99.90;;;;;;8298008;28;20041;-76
2020/12/18 14:53:51;;;;;;;10.90;7.18;;;8.50;99.90;;;;;;8295045;28;20112;-75
2020/12/18 14:57:51;;;;;;;9.20;6.95;;;8.40;99.90;;;;;;8294523;28;20029;-75
2020/12/18 15:01:54;;;;;;;11.85;7.70;;;8.10;99.90;;;;;;8285313;28;20113;-75
2020/12/18 15:05:55;;;;;;;11.73;8.07;;;7.80;99.90;;;;;;8297772;28;20062;-75
2020/12/18 15:09:56;;;;;;;12.35;7.88;;;7.60;99.90;;;;;;8296603;28;20034;-77
2020/12/18 15:13:56;;;;;;;14.07;7.70;;;7.40;99.90;;;;;;8295299;28;20041;-76
2020/12/18 15:17:57;;;;;;;11.98;7.68;;;7.30;99.90;;;;;;8295909;28;21036;-76
2020/12/18 15:21:57;;;;;;;12.13;8.30;;;7.10;99.90;;;;;;8301766;28;20396;-76
2020/12/18 15:25:58;;;;;;;13.70;8.98;;;7.30;99.90;;;;;;8295738;28;20034;-75
2020/12/18 15:29:58;;;;;;;13.05;7.97;;;7.30;99.90;;;;;;8275934;28;20042;-75
2020/12/18 15:33:59;;;;;;;20.33;12.07;;;6.80;99.90;;;;;;8265079;28;20081;-75
2020/12/18 15:38:00;;;;;;;16.05;9.68;;;6.40;99.90;;;;;;8283472;28;20619;-75
2020/12/18 15:42:00;;;;;;;15.50;9.77;;;6.20;99.90;;;;;;8290554;28;20038;-75
2020/12/18 15:46:01;;;;;;;18.17;10.15;;;6.00;99.90;;;;;;8266068;28;20496;-75
2020/12/18 15:50:03;;;;;;;18.10;10.80;;;5.90;99.90;;;;;;8265844;28;20065;-76
2020/12/18 15:54:03;;;;;;;16.25;10.10;;;5.70;99.90;;;;;;8274951;28;20109;-76
2020/12/18 15:58:04;;;;;;;18.02;10.60;;;5.60;99.90;;;;;;8294294;28;20092;-75
2020/12/18 16:02:04;;;;;;;20.35;11.85;;;5.50;99.90;;;;;;8293604;28;20026;-75
2020/12/18 16:06:05;;;;;;;18.25;11.45;;;5.30;99.90;;;;;;8293460;28;20038;-75
2020/12/18 16:10:06;;;;;;;18.52;10.93;;;5.20;99.90;;;;;;8289682;28;20098;-75
2020/12/18 16:14:06;;;;;;;21.92;11.98;;;5.10;99.90;;;;;;8281120;28;20042;-75
2020/12/18 16:18:07;;;;;;;16.02;10.60;;;5.30;99.90;;;;;;8292967;28;20025;-75
2020/12/18 16:22:07;;;;;;;16.80;10.20;;;5.20;99.90;;;;;;8277620;28;20026;-76
2020/12/18 16:26:08;;;;;;;15.65;9.20;;;4.90;99.90;;;;;;8273199;28;20112;-75
2020/12/18 16:30:09;;;;;;;22.05;11.48;;;4.90;99.90;;;;;;8294689;28;20086;-75
2020/12/18 16:34:10;;;;;;;16.83;9.55;;;4.90;99.90;;;;;;8297505;28;20033;-75
2020/12/18 16:38:10;;;;;;;17.45;10.23;;;4.80;99.90;;;;;;8294222;28;20034;-75
2020/12/18 16:42:11;;;;;;;18.80;10.70;;;4.50;99.90;;;;;;8273699;28;20113;-75
2020/12/18 16:46:11;;;;;;;19.42;10.85;;;4.30;99.90;;;;;;8284574;28;20096;-75
2020/12/18 16:50:12;;;;;;;17.98;9.38;;;4.30;99.90;;;;;;8292884;28;20057;-75
2020/12/18 16:54:13;;;;;;;19.33;9.88;;;4.10;99.90;;;;;;8295857;28;20065;-75
2020/12/18 16:58:14;;;;;;;18.17;9.93;;;3.90;99.90;;;;;;8304832;28;20026;-76
2020/12/18 17:02:14;;;;;;;19.75;10.75;;;3.80;99.90;;;;;;8299456;28;20688;-75
2020/12/18 17:06:16;;;;;;;18.10;10.75;;;3.60;99.90;;;;;;8276455;28;20041;-75
2020/12/18 17:10:17;;;;;;;18.55;11.35;;;3.50;99.90;;;;;;8284171;28;20026;-75
2020/12/18 17:14:18;;;;;;;19.73;11.55;;;3.40;99.90;;;;;;8291206;28;20026;-76
2020/12/18 17:18:18;;;;;;;20.60;12.80;;;3.30;99.90;;;;;;8296031;28;20022;-75
2020/12/18 17:22:19;;;;;;;25.70;14.73;;;3.30;99.90;;;;;;8295851;28;20026;-75
2020/12/18 17:26:29;;;;;;;24.85;14.77;;;3.30;99.90;;;;;;8296788;28;20030;-75
2020/12/18 17:30:29;;;;;;;23.40;14.25;;;3.30;99.90;;;;;;8296078;28;20439;-75
2020/12/18 17:34:30;;;;;;;47.22;15.40;;;3.30;99.90;;;;;;8311947;28;20030;-75
2020/12/18 17:38:30;;;;;;;62.70;14.95;;;3.20;99.90;;;;;;8294818;28;20021;-76
2020/12/18 17:42:31;;;;;;;52.90;14.10;;;3.20;99.90;;;;;;8290799;28;20407;-75
2020/12/18 17:46:33;;;;;;;50.30;13.65;;;3.20;99.90;;;;;;8290674;28;20038;-76
2020/12/18 17:50:33;;;;;;;79.43;16.00;;;3.20;99.90;;;;;;8292940;28;20029;-75
2020/12/18 17:54:34;;;;;;;96.57;17.10;;;3.30;99.90;;;;;;8296851;28;20116;-75
2020/12/18 17:58:34;;;;;;;89.22;18.08;;;3.30;99.90;;;;;;8295372;28;20502;-75
2020/12/18 18:02:35;;;;;;;74.07;22.27;;;3.40;99.90;;;;;;8294763;28;20018;-75
2020/12/18 18:06:35;;;;;;;60.28;15.88;;;3.30;99.90;;;;;;8294026;28;20034;-74
2020/12/18 18:10:36;;;;;;;62.97;15.43;;;3.20;99.90;;;;;;8277962;28;20499;-75
2020/12/18 18:14:36;;;;;;;40.70;14.57;;;2.80;99.90;;;;;;8276946;28;20040;-75
2020/12/18 18:18:37;;;;;;;29.38;15.63;;;2.50;99.90;;;;;;8277224;28;20102;-75
2020/12/18 18:22:37;;;;;;;51.05;16.00;;;2.40;99.90;;;;;;8291691;28;20018;-75
2020/12/18 18:26:38;;;;;;;52.03;16.40;;;2.50;99.90;;;;;;8278647;28;20026;-76
2020/12/18 18:30:39;;;;;;;104.20;18.70;;;2.40;99.90;;;;;;8278921;28;20026;-76
2020/12/18 18:34:39;;;;;;;143.57;13.90;;;2.50;99.90;;;;;;8279443;28;20037;-75
2020/12/18 18:38:40;;;;;;;70.90;11.18;;;2.70;99.90;;;;;;8308643;28;20030;-76
2020/12/18 18:42:42;;;;;;;73.35;11.70;;;2.30;99.90;;;;;;8292589;28;20022;-75
2020/12/18 18:46:43;;;;;;;138.70;12.95;;;2.20;99.90;;;;;;8291508;28;20032;-77
2020/12/18 18:50:43;;;;;;;113.75;10.80;;;2.10;99.90;;;;;;8278826;28;20752;-78
2020/12/18 18:54:44;;;;;;;104.57;11.93;;;2.30;99.90;;;;;;8300133;28;20117;-78
2020/12/18 18:58:45;;;;;;;75.15;9.55;;;2.40;99.90;;;;;;8291113;28;20049;-77
2020/12/18 19:02:45;;;;;;;33.08;10.48;;;2.40;99.90;;;;;;8284688;28;20026;-77
2020/12/18 19:06:47;;;;;;;48.47;13.02;;;2.50;99.90;;;;;;8303556;28;20084;-77
2020/12/18 19:10:48;;;;;;;90.03;20.88;;;2.50;99.90;;;;;;8285746;28;20033;-77
2020/12/18 19:14:48;;;;;;;36.58;18.52;;;2.20;99.90;;;;;;8287148;28;20026;-77
2020/12/18 19:18:49;;;;;;;41.88;15.75;;;2.20;99.90;;;;;;8301951;28;20476;-76
2020/12/18 19:22:50;;;;;;;54.90;18.48;;;2.10;99.90;;;;;;8288976;28;20049;-78
2020/12/18 19:26:52;;;;;;;45.80;16.52;;;2.10;99.90;;;;;;8296899;28;20022;-76
2020/12/18 19:30:53;;;;;;;73.82;17.02;;;2.30;99.90;;;;;;8280090;28;20030;-77
2020/12/18 19:34:53;;;;;;;85.60;16.88;;;2.20;99.90;;;;;;8290963;28;20042;-77
2020/12/18 19:38:54;;;;;;;104.70;18.05;;;2.00;99.90;;;;;;8280820;28;20038;-77
2020/12/18 19:42:55;;;;;;;71.95;18.30;;;2.00;99.90;;;;;;8287902;28;20041;-77
2020/12/18 19:46:55;;;;;;;137.20;20.15;;;1.90;99.90;;;;;;8276843;28;20031;-77
2020/12/18 19:50:57;;;;;;;139.25;19.60;;;2.10;99.90;;;;;;8273923;28;20030;-78
2020/12/18 19:54:59;;;;;;;156.40;20.38;;;2.30;99.90;;;;;;8288078;28;20032;-77
2020/12/18 19:59:00;;;;;;;85.85;18.70;;;2.50;99.90;;;;;;8287694;28;20027;-77
2020/12/18 20:03:01;;;;;;;152.02;19.65;;;2.40;99.90;;;;;;8288959;28;20395;-77
2020/12/18 20:07:02;;;;;;;95.20;19.75;;;2.50;99.90;;;;;;8272430;28;20105;-78
2020/12/18 20:11:03;;;;;;;107.13;21.15;;;2.60;99.90;;;;;;8281573;28;20109;-77
2020/12/18 20:15:05;;;;;;;116.72;28.75;;;2.60;99.90;;;;;;8289100;28;20046;-76
2020/12/18 20:19:06;;;;;;;97.07;30.10;;;2.80;99.90;;;;;;8278993;28;20048;-77
2020/12/18 20:23:06;;;;;;;114.85;26.45;;;2.80;99.90;;;;;;8273731;28;20034;-77
2020/12/18 20:27:07;;;;;;;133.32;28.73;;;2.80;99.90;;;;;;8286224;28;20045;-76
2020/12/18 20:31:17;;;;;;;100.25;30.42;;;2.80;99.90;;;;;;8270507;28;20119;-78
2020/12/18 20:35:19;;;;;;;108.22;29.88;;;2.80;99.90;;;;;;8286747;28;20124;-77
2020/12/18 20:39:20;;;;;;;101.32;23.08;;;2.60;99.90;;;;;;8289884;28;20084;-77
2020/12/18 20:43:23;;;;;;;75.95;19.30;;;2.60;99.90;;;;;;8269078;28;20184;-77
2020/12/18 20:47:25;;;;;;;62.70;17.95;;;2.80;99.90;;;;;;8271955;28;20041;-76
2020/12/18 20:51:26;;;;;;;83.47;17.45;;;2.90;99.90;;;;;;8269097;28;20030;-77
2020/12/18 20:55:27;;;;;;;60.78;16.77;;;2.90;99.90;;;;;;8274244;28;20061;-80